sensor_id;sensor_type;location;lat;lon;timestamp;temperature;humidity
582;DHT22;277;50.074;8.436;2022-12-29T00:02:03;10.30;99.90
582;DHT22;277;50.074;8.436;2022-12-29T00:04:31;10.30;99.90
582;DHT22;277;50.074;8.436;2022-12-29T00:06:59;10.30;99.90
582;DHT22;277;50.074;8.436;2022-12-29T00:09:27;10.40;99.90
582;DHT22;277;50.074;8.436;2022-12-29T00:11:54;10.40;99.90
582;DHT22;277;50.074;8.436;2022-12-29T00:14:22;10.40;99.90
582;DHT22;277;50.074;8.436;2022-12-29T00:17:09;10.40;99.90
582;DHT22;277;50.074;8.436;2022-12-29T00:19:37;10.40;99.90
582;DHT22;277;50.074;8.436;2022-12-29T00:22:22;10.50;99.90
582;DHT22;277;50.074;8.436;2022-12-29T00:25:07;10.50;99.90
582;DHT22;277;50.074;8.436;2022-12-29T00:27:53;10.50;99.90
582;DHT22;277;50.074;8.436;2022-12-29T00:30:50;10.50;99.90
582;DHT22;277;50.074;8.436;2022-12-29T00:33:36;10.60;99.90
582;DHT22;277;50.074;8.436;2022-12-29T00:36:23;10.50;99.90
582;DHT22;277;50.074;8.436;2022-12-29T00:38:53;10.60;99.90
582;DHT22;277;50.074;8.436;2022-12-29T00:41:40;10.60;99.90
582;DHT22;277;50.074;8.436;2022-12-29T00:44:25;10.60;99.90
582;DHT22;277;50.074;8.436;2022-12-29T00:46:53;10.60;99.90
582;DHT22;277;50.074;8.436;2022-12-29T00:49:22;10.70;99.90
582;DHT22;277;50.074;8.436;2022-12-29T00:51:58;10.70;99.90
582;DHT22;277;50.074;8.436;2022-12-29T00:54:26;10.70;99.90
582;DHT22;277;50.074;8.436;2022-12-29T00:56:54;10.60;99.90
582;DHT22;277;50.074;8.436;2022-12-29T00:59:21;10.70;99.90
582;DHT22;277;50.074;8.436;2022-12-29T01:01:50;10.70;99.90
582;DHT22;277;50.074;8.436;2022-12-29T01:04:19;10.70;99.90
582;DHT22;277;50.074;8.436;2022-12-29T01:06:49;10.70;99.90
582;DHT22;277;50.074;8.436;2022-12-29T01:09:17;10.70;99.90
582;DHT22;277;50.074;8.436;2022-12-29T01:12:02;10.70;99.90
582;DHT22;277;50.074;8.436;2022-12-29T01:14:30;10.70;99.90
582;DHT22;277;50.074;8.436;2022-12-29T01:16:58;10.70;99.90
582;DHT22;277;50.074;8.436;2022-12-29T01:19:26;10.70;99.90
582;DHT22;277;50.074;8.436;2022-12-29T01:21:55;10.60;99.90
582;DHT22;277;50.074;8.436;2022-12-29T01:24:23;10.60;99.90
582;DHT22;277;50.074;8.436;2022-12-29T01:26:52;10.60;99.90
582;DHT22;277;50.074;8.436;2022-12-29T01:29:20;10.60;99.90
582;DHT22;277;50.074;8.436;2022-12-29T01:31:48;10.60;99.90
582;DHT22;277;50.074;8.436;2022-12-29T01:34:17;10.60;99.90
582;DHT22;277;50.074;8.436;2022-12-29T01:36:44;10.50;99.90
582;DHT22;277;50.074;8.436;2022-12-29T01:39:13;10.60;99.90
582;DHT22;277;50.074;8.436;2022-12-29T01:41:41;10.60;99.90
582;DHT22;277;50.074;8.436;2022-12-29T01:46:55;10.60;99.90
582;DHT22;277;50.074;8.436;2022-12-29T01:49:24;10.60;99.90
582;DHT22;277;50.074;8.436;2022-12-29T01:51:55;10.60;99.90
582;DHT22;277;50.074;8.436;2022-12-29T01:54:26;10.60;99.90
582;DHT22;277;50.074;8.436;2022-12-29T01:56:56;10.60;99.90
582;DHT22;277;50.074;8.436;2022-12-29T01:59:26;10.60;99.90
582;DHT22;277;50.074;8.436;2022-12-29T02:01:55;10.60;99.90
582;DHT22;277;50.074;8.436;2022-12-29T02:04:23;10.60;99.90
582;DHT22;277;50.074;8.436;2022-12-29T02:06:51;10.70;99.90
582;DHT22;277;50.074;8.436;2022-12-29T02:09:21;10.70;99.90
582;DHT22;277;50.074;8.436;2022-12-29T02:11:51;10.70;99.90
582;DHT22;277;50.074;8.436;2022-12-29T02:14:19;10.70;99.90
582;DHT22;277;50.074;8.436;2022-12-29T02:16:51;10.80;99.90
582;DHT22;277;50.074;8.436;2022-12-29T02:19:39;10.80;99.90
582;DHT22;277;50.074;8.436;2022-12-29T02:22:16;10.80;99.90
582;DHT22;277;50.074;8.436;2022-12-29T02:24:54;10.80;99.90
582;DHT22;277;50.074;8.436;2022-12-29T02:27:39;10.80;99.90
582;DHT22;277;50.074;8.436;2022-12-29T02:30:12;10.80;99.90
582;DHT22;277;50.074;8.436;2022-12-29T02:32:48;10.80;99.90
582;DHT22;277;50.074;8.436;2022-12-29T02:35:22;10.80;99.90
582;DHT22;277;50.074;8.436;2022-12-29T02:37:53;10.70;99.90
582;DHT22;277;50.074;8.436;2022-12-29T02:40:23;10.70;99.90
582;DHT22;277;50.074;8.436;2022-12-29T02:43:01;10.70;99.90
582;DHT22;277;50.074;8.436;2022-12-29T02:45:31;10.70;99.90
582;DHT22;277;50.074;8.436;2022-12-29T02:48:03;10.60;99.90
582;DHT22;277;50.074;8.436;2022-12-29T02:50:32;10.50;99.90
582;DHT22;277;50.074;8.436;2022-12-29T02:53:02;10.50;99.90
582;DHT22;277;50.074;8.436;2022-12-29T02:55:31;10.50;99.90
582;DHT22;277;50.074;8.436;2022-12-29T02:58:06;10.50;99.90
582;DHT22;277;50.074;8.436;2022-12-29T03:00:42;10.50;99.90
582;DHT22;277;50.074;8.436;2022-12-29T03:03:16;10.50;99.90
582;DHT22;277;50.074;8.436;2022-12-29T03:05:53;10.40;99.90
582;DHT22;277;50.074;8.436;2022-12-29T03:08:26;10.40;99.90
582;DHT22;277;50.074;8.436;2022-12-29T03:10:59;10.40;99.90
582;DHT22;277;50.074;8.436;2022-12-29T03:13:28;10.40;99.90
582;DHT22;277;50.074;8.436;2022-12-29T03:16:19;10.40;99.90
582;DHT22;277;50.074;8.436;2022-12-29T03:18:51;10.40;99.90
582;DHT22;277;50.074;8.436;2022-12-29T03:21:24;10.40;99.90
582;DHT22;277;50.074;8.436;2022-12-29T03:24:14;10.40;99.90
582;DHT22;277;50.074;8.436;2022-12-29T03:26:43;10.50;99.90
582;DHT22;277;50.074;8.436;2022-12-29T03:29:12;10.50;99.90
582;DHT22;277;50.074;8.436;2022-12-29T03:31:41;10.40;99.90
582;DHT22;277;50.074;8.436;2022-12-29T03:34:11;10.40;99.90
582;DHT22;277;50.074;8.436;2022-12-29T03:36:42;10.50;99.90
582;DHT22;277;50.074;8.436;2022-12-29T03:39:12;10.50;99.90
582;DHT22;277;50.074;8.436;2022-12-29T03:41:41;10.50;99.90
582;DHT22;277;50.074;8.436;2022-12-29T03:44:11;10.50;99.90
582;DHT22;277;50.074;8.436;2022-12-29T03:46:40;10.50;99.90
582;DHT22;277;50.074;8.436;2022-12-29T03:49:07;10.60;99.90
582;DHT22;277;50.074;8.436;2022-12-29T03:51:36;10.60;99.90
582;DHT22;277;50.074;8.436;2022-12-29T03:54:04;10.60;99.90
582;DHT22;277;50.074;8.436;2022-12-29T03:56:32;10.70;99.90
582;DHT22;277;50.074;8.436;2022-12-29T03:59:00;10.70;99.90
582;DHT22;277;50.074;8.436;2022-12-29T04:01:28;10.70;99.90
582;DHT22;277;50.074;8.436;2022-12-29T04:03:56;10.80;99.90
582;DHT22;277;50.074;8.436;2022-12-29T04:06:23;10.80;99.90
582;DHT22;277;50.074;8.436;2022-12-29T04:08:52;10.80;99.90
582;DHT22;277;50.074;8.436;2022-12-29T04:11:20;10.80;99.90
582;DHT22;277;50.074;8.436;2022-12-29T04:13:53;10.80;99.90
582;DHT22;277;50.074;8.436;2022-12-29T04:16:21;10.80;99.90
582;DHT22;277;50.074;8.436;2022-12-29T04:18:49;10.80;99.90
582;DHT22;277;50.074;8.436;2022-12-29T04:21:17;10.80;99.90
582;DHT22;277;50.074;8.436;2022-12-29T04:23:44;10.90;99.90
582;DHT22;277;50.074;8.436;2022-12-29T04:26:13;10.80;99.90
582;DHT22;277;50.074;8.436;2022-12-29T04:28:41;10.90;99.90
582;DHT22;277;50.074;8.436;2022-12-29T04:31:09;10.90;99.90
582;DHT22;277;50.074;8.436;2022-12-29T04:33:37;10.90;99.90
582;DHT22;277;50.074;8.436;2022-12-29T04:36:05;10.90;99.90
582;DHT22;277;50.074;8.436;2022-12-29T04:38:33;10.90;99.90
582;DHT22;277;50.074;8.436;2022-12-29T04:41:01;11.00;99.90
582;DHT22;277;50.074;8.436;2022-12-29T04:43:30;11.00;99.90
582;DHT22;277;50.074;8.436;2022-12-29T04:45:57;11.00;99.90
582;DHT22;277;50.074;8.436;2022-12-29T04:48:25;11.00;99.90
582;DHT22;277;50.074;8.436;2022-12-29T04:50:53;11.00;99.90
582;DHT22;277;50.074;8.436;2022-12-29T04:53:21;11.00;99.90
582;DHT22;277;50.074;8.436;2022-12-29T04:55:49;11.00;99.90
582;DHT22;277;50.074;8.436;2022-12-29T04:58:17;11.00;99.90
582;DHT22;277;50.074;8.436;2022-12-29T05:00:51;11.10;99.90
582;DHT22;277;50.074;8.436;2022-12-29T05:03:18;11.10;99.90
582;DHT22;277;50.074;8.436;2022-12-29T05:05:46;11.10;99.90
582;DHT22;277;50.074;8.436;2022-12-29T05:08:14;11.00;99.90
582;DHT22;277;50.074;8.436;2022-12-29T05:10:43;10.90;99.90
582;DHT22;277;50.074;8.436;2022-12-29T05:13:11;10.90;99.90
582;DHT22;277;50.074;8.436;2022-12-29T05:15:40;10.80;99.90
582;DHT22;277;50.074;8.436;2022-12-29T05:18:09;10.80;99.90
582;DHT22;277;50.074;8.436;2022-12-29T05:20:36;10.80;99.90
582;DHT22;277;50.074;8.436;2022-12-29T05:23:04;10.80;99.90
582;DHT22;277;50.074;8.436;2022-12-29T05:25:32;10.70;99.90
582;DHT22;277;50.074;8.436;2022-12-29T05:27:59;10.60;99.90
582;DHT22;277;50.074;8.436;2022-12-29T05:30:27;10.60;99.90
582;DHT22;277;50.074;8.436;2022-12-29T05:32:55;10.50;99.90
582;DHT22;277;50.074;8.436;2022-12-29T05:35:24;10.50;99.90
582;DHT22;277;50.074;8.436;2022-12-29T05:37:51;10.40;99.90
582;DHT22;277;50.074;8.436;2022-12-29T05:40:19;10.40;99.90
582;DHT22;277;50.074;8.436;2022-12-29T05:42:47;10.50;99.90
582;DHT22;277;50.074;8.436;2022-12-29T05:45:14;10.50;99.90
582;DHT22;277;50.074;8.436;2022-12-29T05:47:43;10.50;99.90
582;DHT22;277;50.074;8.436;2022-12-29T05:50:11;10.50;99.90
582;DHT22;277;50.074;8.436;2022-12-29T05:52:40;10.60;99.90
582;DHT22;277;50.074;8.436;2022-12-29T05:55:08;10.60;99.90
582;DHT22;277;50.074;8.436;2022-12-29T05:57:36;10.60;99.90
582;DHT22;277;50.074;8.436;2022-12-29T06:00:04;10.60;99.90
582;DHT22;277;50.074;8.436;2022-12-29T06:02:32;10.70;99.90
582;DHT22;277;50.074;8.436;2022-12-29T06:05:00;10.70;99.90
582;DHT22;277;50.074;8.436;2022-12-29T06:07:28;10.80;99.90
582;DHT22;277;50.074;8.436;2022-12-29T06:09:57;10.80;99.90
582;DHT22;277;50.074;8.436;2022-12-29T06:12:24;10.80;99.90
582;DHT22;277;50.074;8.436;2022-12-29T06:14:52;10.80;99.90
582;DHT22;277;50.074;8.436;2022-12-29T06:17:20;10.90;99.90
582;DHT22;277;50.074;8.436;2022-12-29T06:19:48;10.90;99.90
582;DHT22;277;50.074;8.436;2022-12-29T06:22:16;10.90;99.90
582;DHT22;277;50.074;8.436;2022-12-29T06:24:43;11.00;99.90
582;DHT22;277;50.074;8.436;2022-12-29T06:27:12;11.00;99.90
582;DHT22;277;50.074;8.436;2022-12-29T06:29:41;11.00;99.90
582;DHT22;277;50.074;8.436;2022-12-29T06:32:09;11.10;99.90
582;DHT22;277;50.074;8.436;2022-12-29T06:34:37;11.10;99.90
582;DHT22;277;50.074;8.436;2022-12-29T06:37:04;11.10;99.90
582;DHT22;277;50.074;8.436;2022-12-29T06:39:32;11.20;99.90
582;DHT22;277;50.074;8.436;2022-12-29T06:42:00;11.20;99.90
582;DHT22;277;50.074;8.436;2022-12-29T06:44:29;11.20;99.90
582;DHT22;277;50.074;8.436;2022-12-29T06:46:57;11.30;99.90
582;DHT22;277;50.074;8.436;2022-12-29T06:49:24;11.30;99.90
582;DHT22;277;50.074;8.436;2022-12-29T06:51:52;11.30;99.90
582;DHT22;277;50.074;8.436;2022-12-29T06:54:20;11.30;99.90
582;DHT22;277;50.074;8.436;2022-12-29T06:56:47;11.20;99.90
582;DHT22;277;50.074;8.436;2022-12-29T06:59:15;11.20;99.90
582;DHT22;277;50.074;8.436;2022-12-29T07:01:44;11.10;99.90
582;DHT22;277;50.074;8.436;2022-12-29T07:04:12;11.10;99.90
582;DHT22;277;50.074;8.436;2022-12-29T07:06:40;11.00;99.90
582;DHT22;277;50.074;8.436;2022-12-29T07:09:07;11.00;99.90
582;DHT22;277;50.074;8.436;2022-12-29T07:11:35;10.90;99.90
582;DHT22;277;50.074;8.436;2022-12-29T07:14:03;10.90;99.90
582;DHT22;277;50.074;8.436;2022-12-29T07:16:31;10.90;99.90
582;DHT22;277;50.074;8.436;2022-12-29T07:19:02;10.80;99.90
582;DHT22;277;50.074;8.436;2022-12-29T07:21:29;10.90;99.90
582;DHT22;277;50.074;8.436;2022-12-29T07:23:57;10.80;99.90
582;DHT22;277;50.074;8.436;2022-12-29T07:26:25;10.80;99.90
582;DHT22;277;50.074;8.436;2022-12-29T07:29:00;10.90;99.90
582;DHT22;277;50.074;8.436;2022-12-29T07:31:27;10.90;99.90
582;DHT22;277;50.074;8.436;2022-12-29T07:33:55;11.00;99.90
582;DHT22;277;50.074;8.436;2022-12-29T07:36:24;11.00;99.90
582;DHT22;277;50.074;8.436;2022-12-29T07:38:59;11.10;99.90
582;DHT22;277;50.074;8.436;2022-12-29T07:41:27;11.20;99.90
582;DHT22;277;50.074;8.436;2022-12-29T07:43:55;11.20;99.90
582;DHT22;277;50.074;8.436;2022-12-29T07:46:22;11.30;99.90
582;DHT22;277;50.074;8.436;2022-12-29T07:49:10;11.30;99.90
582;DHT22;277;50.074;8.436;2022-12-29T07:51:39;11.40;99.90
582;DHT22;277;50.074;8.436;2022-12-29T07:54:08;11.40;99.90
582;DHT22;277;50.074;8.436;2022-12-29T07:56:35;11.40;99.90
582;DHT22;277;50.074;8.436;2022-12-29T07:59:03;11.40;99.90
582;DHT22;277;50.074;8.436;2022-12-29T08:01:31;11.40;99.90
582;DHT22;277;50.074;8.436;2022-12-29T08:03:59;11.40;99.90
582;DHT22;277;50.074;8.436;2022-12-29T08:06:27;11.40;99.90
582;DHT22;277;50.074;8.436;2022-12-29T08:08:57;11.40;99.90
582;DHT22;277;50.074;8.436;2022-12-29T08:11:37;11.40;99.90
582;DHT22;277;50.074;8.436;2022-12-29T08:14:06;11.40;99.90
582;DHT22;277;50.074;8.436;2022-12-29T08:16:34;11.40;99.90
582;DHT22;277;50.074;8.436;2022-12-29T08:19:02;11.30;99.90
582;DHT22;277;50.074;8.436;2022-12-29T08:21:31;11.30;99.90
582;DHT22;277;50.074;8.436;2022-12-29T08:24:00;11.30;99.90
582;DHT22;277;50.074;8.436;2022-12-29T08:26:28;11.30;99.90
582;DHT22;277;50.074;8.436;2022-12-29T08:28:56;11.30;99.90
582;DHT22;277;50.074;8.436;2022-12-29T08:31:23;11.30;99.90
582;DHT22;277;50.074;8.436;2022-12-29T08:33:52;11.20;99.90
582;DHT22;277;50.074;8.436;2022-12-29T08:36:19;11.20;99.90
582;DHT22;277;50.074;8.436;2022-12-29T08:38:47;11.20;99.90
582;DHT22;277;50.074;8.436;2022-12-29T08:41:16;11.20;99.90
582;DHT22;277;50.074;8.436;2022-12-29T08:43:45;11.30;99.90
582;DHT22;277;50.074;8.436;2022-12-29T08:46:13;11.20;99.90
582;DHT22;277;50.074;8.436;2022-12-29T08:48:40;11.20;99.90
582;DHT22;277;50.074;8.436;2022-12-29T08:51:08;11.10;99.90
582;DHT22;277;50.074;8.436;2022-12-29T08:53:36;11.10;99.90
582;DHT22;277;50.074;8.436;2022-12-29T08:56:04;11.00;99.90
582;DHT22;277;50.074;8.436;2022-12-29T08:58:33;10.90;99.90
582;DHT22;277;50.074;8.436;2022-12-29T09:01:01;10.80;99.90
582;DHT22;277;50.074;8.436;2022-12-29T09:03:31;10.80;99.90
582;DHT22;277;50.074;8.436;2022-12-29T09:06:19;10.70;99.90
582;DHT22;277;50.074;8.436;2022-12-29T09:08:47;10.60;99.90
582;DHT22;277;50.074;8.436;2022-12-29T09:11:16;10.60;99.90
582;DHT22;277;50.074;8.436;2022-12-29T09:13:45;10.60;99.90
582;DHT22;277;50.074;8.436;2022-12-29T09:16:13;10.50;99.90
582;DHT22;277;50.074;8.436;2022-12-29T09:18:41;10.50;99.90
582;DHT22;277;50.074;8.436;2022-12-29T09:21:09;10.50;99.90
582;DHT22;277;50.074;8.436;2022-12-29T09:23:38;10.50;99.90
582;DHT22;277;50.074;8.436;2022-12-29T09:26:06;10.50;99.90
582;DHT22;277;50.074;8.436;2022-12-29T09:28:34;10.50;99.90
582;DHT22;277;50.074;8.436;2022-12-29T09:31:04;10.40;99.90
582;DHT22;277;50.074;8.436;2022-12-29T09:33:32;10.40;99.90
582;DHT22;277;50.074;8.436;2022-12-29T09:36:00;10.40;99.90
582;DHT22;277;50.074;8.436;2022-12-29T09:38:28;10.40;99.90
582;DHT22;277;50.074;8.436;2022-12-29T09:40:57;10.40;99.90
582;DHT22;277;50.074;8.436;2022-12-29T09:43:32;10.40;99.90
582;DHT22;277;50.074;8.436;2022-12-29T09:46:06;10.30;99.90
582;DHT22;277;50.074;8.436;2022-12-29T09:48:41;10.30;99.90
582;DHT22;277;50.074;8.436;2022-12-29T09:51:12;10.30;99.90
582;DHT22;277;50.074;8.436;2022-12-29T09:53:41;10.30;99.90
582;DHT22;277;50.074;8.436;2022-12-29T09:56:11;10.30;99.90
582;DHT22;277;50.074;8.436;2022-12-29T09:58:41;10.40;99.90
582;DHT22;277;50.074;8.436;2022-12-29T10:01:14;10.30;99.90
582;DHT22;277;50.074;8.436;2022-12-29T10:03:45;10.40;99.90
582;DHT22;277;50.074;8.436;2022-12-29T10:06:15;10.40;99.90
582;DHT22;277;50.074;8.436;2022-12-29T10:08:47;10.30;99.90
582;DHT22;277;50.074;8.436;2022-12-29T10:11:22;10.30;99.90
582;DHT22;277;50.074;8.436;2022-12-29T10:13:57;10.30;99.90
582;DHT22;277;50.074;8.436;2022-12-29T10:16:31;10.30;99.90
582;DHT22;277;50.074;8.436;2022-12-29T10:19:09;10.30;99.90
582;DHT22;277;50.074;8.436;2022-12-29T10:21:45;10.30;99.90
582;DHT22;277;50.074;8.436;2022-12-29T10:24:15;10.30;99.90
582;DHT22;277;50.074;8.436;2022-12-29T10:26:44;10.30;99.90
582;DHT22;277;50.074;8.436;2022-12-29T10:29:14;10.30;99.90
582;DHT22;277;50.074;8.436;2022-12-29T10:31:44;10.30;99.90
582;DHT22;277;50.074;8.436;2022-12-29T10:34:15;10.30;99.90
582;DHT22;277;50.074;8.436;2022-12-29T10:36:46;10.30;99.90
582;DHT22;277;50.074;8.436;2022-12-29T10:39:16;10.30;99.90
582;DHT22;277;50.074;8.436;2022-12-29T10:41:48;10.40;99.90
582;DHT22;277;50.074;8.436;2022-12-29T10:44:17;10.40;99.90
582;DHT22;277;50.074;8.436;2022-12-29T10:46:48;10.40;99.90
582;DHT22;277;50.074;8.436;2022-12-29T10:49:18;10.40;99.90
582;DHT22;277;50.074;8.436;2022-12-29T10:51:48;10.50;99.90
582;DHT22;277;50.074;8.436;2022-12-29T10:54:19;10.60;99.90
582;DHT22;277;50.074;8.436;2022-12-29T10:56:50;10.60;99.90
582;DHT22;277;50.074;8.436;2022-12-29T10:59:19;10.60;99.90
582;DHT22;277;50.074;8.436;2022-12-29T11:01:57;10.70;99.90
582;DHT22;277;50.074;8.436;2022-12-29T11:04:32;11.00;99.90
582;DHT22;277;50.074;8.436;2022-12-29T11:07:01;11.30;99.90
582;DHT22;277;50.074;8.436;2022-12-29T11:09:29;11.60;99.90
582;DHT22;277;50.074;8.436;2022-12-29T11:12:17;11.90;99.90
582;DHT22;277;50.074;8.436;2022-12-29T11:14:47;12.10;99.90
582;DHT22;277;50.074;8.436;2022-12-29T11:17:28;12.40;99.90
582;DHT22;277;50.074;8.436;2022-12-29T11:19:56;12.80;99.90
582;DHT22;277;50.074;8.436;2022-12-29T11:22:25;12.80;99.90
582;DHT22;277;50.074;8.436;2022-12-29T11:24:53;12.70;99.90
582;DHT22;277;50.074;8.436;2022-12-29T11:27:22;12.40;99.90
582;DHT22;277;50.074;8.436;2022-12-29T11:29:50;12.30;99.90
582;DHT22;277;50.074;8.436;2022-12-29T11:32:18;12.30;99.90
582;DHT22;277;50.074;8.436;2022-12-29T11:34:55;12.30;99.90
582;DHT22;277;50.074;8.436;2022-12-29T11:37:25;12.30;99.90
582;DHT22;277;50.074;8.436;2022-12-29T11:39:54;12.50;99.90
582;DHT22;277;50.074;8.436;2022-12-29T11:42:34;12.50;99.90
582;DHT22;277;50.074;8.436;2022-12-29T11:45:03;12.60;99.90
582;DHT22;277;50.074;8.436;2022-12-29T11:47:36;12.70;99.90
582;DHT22;277;50.074;8.436;2022-12-29T11:50:06;12.70;99.90
582;DHT22;277;50.074;8.436;2022-12-29T11:52:35;12.70;99.90
582;DHT22;277;50.074;8.436;2022-12-29T11:55:09;12.70;99.90
582;DHT22;277;50.074;8.436;2022-12-29T11:57:44;12.70;99.90
582;DHT22;277;50.074;8.436;2022-12-29T12:00:15;12.80;99.90
582;DHT22;277;50.074;8.436;2022-12-29T12:02:48;12.80;99.90
582;DHT22;277;50.074;8.436;2022-12-29T12:05:24;13.30;99.90
582;DHT22;277;50.074;8.436;2022-12-29T12:07:55;13.50;99.90
582;DHT22;277;50.074;8.436;2022-12-29T12:10:25;13.50;99.90
582;DHT22;277;50.074;8.436;2022-12-29T12:12:56;13.50;99.90
582;DHT22;277;50.074;8.436;2022-12-29T12:15:35;13.40;99.90
582;DHT22;277;50.074;8.436;2022-12-29T12:18:21;13.20;99.90
582;DHT22;277;50.074;8.436;2022-12-29T12:20:54;12.90;99.90
582;DHT22;277;50.074;8.436;2022-12-29T12:23:25;12.70;99.90
582;DHT22;277;50.074;8.436;2022-12-29T12:25:56;12.60;99.90
582;DHT22;277;50.074;8.436;2022-12-29T12:28:28;12.50;99.90
582;DHT22;277;50.074;8.436;2022-12-29T12:31:02;12.40;99.90
582;DHT22;277;50.074;8.436;2022-12-29T12:33:34;12.20;99.90
582;DHT22;277;50.074;8.436;2022-12-29T12:36:09;12.20;99.90
582;DHT22;277;50.074;8.436;2022-12-29T12:38:42;12.10;99.90
582;DHT22;277;50.074;8.436;2022-12-29T12:41:15;12.10;99.90
582;DHT22;277;50.074;8.436;2022-12-29T12:43:49;12.00;99.90
582;DHT22;277;50.074;8.436;2022-12-29T12:46:28;12.00;99.90
582;DHT22;277;50.074;8.436;2022-12-29T12:49:06;11.90;99.90
582;DHT22;277;50.074;8.436;2022-12-29T12:51:42;11.70;99.90
582;DHT22;277;50.074;8.436;2022-12-29T12:54:18;11.60;99.90
582;DHT22;277;50.074;8.436;2022-12-29T12:56:55;11.60;99.90
582;DHT22;277;50.074;8.436;2022-12-29T12:59:32;11.50;99.90
582;DHT22;277;50.074;8.436;2022-12-29T13:02:08;11.40;99.90
582;DHT22;277;50.074;8.436;2022-12-29T13:04:52;11.40;99.90
582;DHT22;277;50.074;8.436;2022-12-29T13:07:24;11.40;99.90
582;DHT22;277;50.074;8.436;2022-12-29T13:10:00;11.40;99.90
582;DHT22;277;50.074;8.436;2022-12-29T13:12:32;11.40;99.90
582;DHT22;277;50.074;8.436;2022-12-29T13:15:04;11.60;99.90
582;DHT22;277;50.074;8.436;2022-12-29T13:17:34;11.70;99.90
582;DHT22;277;50.074;8.436;2022-12-29T13:20:07;11.90;99.90
582;DHT22;277;50.074;8.436;2022-12-29T13:22:40;12.00;99.90
582;DHT22;277;50.074;8.436;2022-12-29T13:25:20;12.20;99.90
582;DHT22;277;50.074;8.436;2022-12-29T13:27:51;12.30;99.90
582;DHT22;277;50.074;8.436;2022-12-29T13:30:21;12.30;99.90
582;DHT22;277;50.074;8.436;2022-12-29T13:32:53;12.40;99.90
582;DHT22;277;50.074;8.436;2022-12-29T13:35:26;12.40;99.90
582;DHT22;277;50.074;8.436;2022-12-29T13:37:58;12.40;99.90
582;DHT22;277;50.074;8.436;2022-12-29T13:40:28;12.30;99.90
582;DHT22;277;50.074;8.436;2022-12-29T13:43:00;12.20;99.90
582;DHT22;277;50.074;8.436;2022-12-29T13:45:29;12.10;99.90
582;DHT22;277;50.074;8.436;2022-12-29T13:47:59;12.00;99.90
582;DHT22;277;50.074;8.436;2022-12-29T13:50:29;12.00;99.90
582;DHT22;277;50.074;8.436;2022-12-29T13:53:01;11.90;99.90
582;DHT22;277;50.074;8.436;2022-12-29T13:55:34;11.90;99.90
582;DHT22;277;50.074;8.436;2022-12-29T13:58:03;11.90;99.90
582;DHT22;277;50.074;8.436;2022-12-29T14:00:34;11.90;99.90
582;DHT22;277;50.074;8.436;2022-12-29T14:03:12;11.90;99.90
582;DHT22;277;50.074;8.436;2022-12-29T14:05:44;11.90;99.90
582;DHT22;277;50.074;8.436;2022-12-29T14:08:15;11.90;99.90
582;DHT22;277;50.074;8.436;2022-12-29T14:10:48;11.90;99.90
582;DHT22;277;50.074;8.436;2022-12-29T14:13:16;11.80;99.90
582;DHT22;277;50.074;8.436;2022-12-29T14:15:50;11.80;99.90
582;DHT22;277;50.074;8.436;2022-12-29T14:18:19;11.80;99.90
582;DHT22;277;50.074;8.436;2022-12-29T14:20:50;11.80;99.90
582;DHT22;277;50.074;8.436;2022-12-29T14:23:27;11.70;99.90
582;DHT22;277;50.074;8.436;2022-12-29T14:25:57;11.60;99.90
582;DHT22;277;50.074;8.436;2022-12-29T14:28:25;11.60;99.90
582;DHT22;277;50.074;8.436;2022-12-29T14:30:54;11.50;99.90
582;DHT22;277;50.074;8.436;2022-12-29T14:33:22;11.50;99.90
582;DHT22;277;50.074;8.436;2022-12-29T14:35:52;11.50;99.90
582;DHT22;277;50.074;8.436;2022-12-29T14:38:30;11.50;99.90
582;DHT22;277;50.074;8.436;2022-12-29T14:41:18;11.50;99.90
582;DHT22;277;50.074;8.436;2022-12-29T14:43:52;11.50;99.90
582;DHT22;277;50.074;8.436;2022-12-29T14:46:20;11.50;99.90
582;DHT22;277;50.074;8.436;2022-12-29T14:48:52;11.50;99.90
582;DHT22;277;50.074;8.436;2022-12-29T14:51:28;11.50;99.90
582;DHT22;277;50.074;8.436;2022-12-29T14:53:58;11.50;99.90
582;DHT22;277;50.074;8.436;2022-12-29T14:56:26;11.50;99.90
582;DHT22;277;50.074;8.436;2022-12-29T14:58:55;11.50;99.90
582;DHT22;277;50.074;8.436;2022-12-29T15:01:34;11.50;99.90
582;DHT22;277;50.074;8.436;2022-12-29T15:04:05;11.50;99.90
582;DHT22;277;50.074;8.436;2022-12-29T15:06:35;11.30;99.90
582;DHT22;277;50.074;8.436;2022-12-29T15:09:06;11.30;99.90
582;DHT22;277;50.074;8.436;2022-12-29T15:11:42;11.20;99.90
582;DHT22;277;50.074;8.436;2022-12-29T15:14:28;11.10;99.90
582;DHT22;277;50.074;8.436;2022-12-29T15:16:56;11.10;99.90
582;DHT22;277;50.074;8.436;2022-12-29T15:19:24;11.00;99.90
582;DHT22;277;50.074;8.436;2022-12-29T15:21:52;10.90;99.90
582;DHT22;277;50.074;8.436;2022-12-29T15:24:23;10.90;99.90
582;DHT22;277;50.074;8.436;2022-12-29T15:26:52;10.80;99.90
582;DHT22;277;50.074;8.436;2022-12-29T15:29:29;10.70;99.90
582;DHT22;277;50.074;8.436;2022-12-29T15:31:57;10.70;99.90
582;DHT22;277;50.074;8.436;2022-12-29T15:34:28;10.60;99.90
582;DHT22;277;50.074;8.436;2022-12-29T15:36:56;10.60;99.90
582;DHT22;277;50.074;8.436;2022-12-29T15:39:28;10.50;99.90
582;DHT22;277;50.074;8.436;2022-12-29T15:41:59;10.50;99.90
582;DHT22;277;50.074;8.436;2022-12-29T15:44:28;10.50;99.90
582;DHT22;277;50.074;8.436;2022-12-29T15:46:57;10.50;99.90
582;DHT22;277;50.074;8.436;2022-12-29T15:49:25;10.40;99.90
582;DHT22;277;50.074;8.436;2022-12-29T15:51:58;10.50;99.90
582;DHT22;277;50.074;8.436;2022-12-29T15:54:26;10.50;99.90
582;DHT22;277;50.074;8.436;2022-12-29T15:56:57;10.40;99.90
582;DHT22;277;50.074;8.436;2022-12-29T15:59:26;10.50;99.90
582;DHT22;277;50.074;8.436;2022-12-29T16:01:54;10.50;99.90
582;DHT22;277;50.074;8.436;2022-12-29T16:04:23;10.40;99.90
582;DHT22;277;50.074;8.436;2022-12-29T16:06:56;10.50;99.90
582;DHT22;277;50.074;8.436;2022-12-29T16:09:31;10.50;99.90
582;DHT22;277;50.074;8.436;2022-12-29T16:12:02;10.40;99.90
582;DHT22;277;50.074;8.436;2022-12-29T16:14:31;10.40;99.90
582;DHT22;277;50.074;8.436;2022-12-29T16:17:01;10.40;99.90
582;DHT22;277;50.074;8.436;2022-12-29T16:19:32;10.40;99.90
582;DHT22;277;50.074;8.436;2022-12-29T16:22:00;10.40;99.90
582;DHT22;277;50.074;8.436;2022-12-29T16:24:29;10.40;99.90
582;DHT22;277;50.074;8.436;2022-12-29T16:26:59;10.40;99.90
582;DHT22;277;50.074;8.436;2022-12-29T16:29:30;10.40;99.90
582;DHT22;277;50.074;8.436;2022-12-29T16:31:58;10.30;99.90
582;DHT22;277;50.074;8.436;2022-12-29T16:34:30;10.30;99.90
582;DHT22;277;50.074;8.436;2022-12-29T16:36:58;10.30;99.90
582;DHT22;277;50.074;8.436;2022-12-29T16:39:27;10.20;99.90
582;DHT22;277;50.074;8.436;2022-12-29T16:41:56;10.20;99.90
582;DHT22;277;50.074;8.436;2022-12-29T16:44:24;10.20;99.90
582;DHT22;277;50.074;8.436;2022-12-29T16:47:05;10.10;99.90
582;DHT22;277;50.074;8.436;2022-12-29T16:49:34;10.00;99.90
582;DHT22;277;50.074;8.436;2022-12-29T16:52:10;10.00;99.90
582;DHT22;277;50.074;8.436;2022-12-29T16:54:38;9.90;99.90
582;DHT22;277;50.074;8.436;2022-12-29T16:57:06;9.90;99.90
582;DHT22;277;50.074;8.436;2022-12-29T16:59:34;9.80;99.90
582;DHT22;277;50.074;8.436;2022-12-29T17:02:06;9.80;99.90